sensor_id;sensor_type;location;lat;lon;timestamp;P1;durP1;ratioP1;P2;durP2;ratioP2
62798;SDS011;48842;51.046;13.796;2022-11-20T00:01:31;32.80;;;19.93;;
62798;SDS011;48842;51.046;13.796;2022-11-20T00:03:57;30.87;;;19.37;;
62798;SDS011;48842;51.046;13.796;2022-11-20T00:06:23;27.15;;;18.55;;
62798;SDS011;48842;51.046;13.796;2022-11-20T00:08:49;26.40;;;18.50;;
62798;SDS011;48842;51.046;13.796;2022-11-20T00:11:19;25.17;;;16.55;;
62798;SDS011;48842;51.046;13.796;2022-11-20T00:13:48;26.58;;;17.98;;
62798;SDS011;48842;51.046;13.796;2022-11-20T00:16:15;31.38;;;19.42;;
62798;SDS011;48842;51.046;13.796;2022-11-20T00:18:43;29.45;;;17.77;;
62798;SDS011;48842;51.046;13.796;2022-11-20T00:21:14;27.90;;;17.98;;
62798;SDS011;48842;51.046;13.796;2022-11-20T00:23:41;25.00;;;16.98;;
62798;SDS011;48842;51.046;13.796;2022-11-20T00:26:08;31.23;;;18.45;;
62798;SDS011;48842;51.046;13.796;2022-11-20T00:28:35;29.50;;;18.40;;
62798;SDS011;48842;51.046;13.796;2022-11-20T00:31:01;27.23;;;17.30;;
62798;SDS011;48842;51.046;13.796;2022-11-20T00:33:28;29.30;;;18.63;;
62798;SDS011;48842;51.046;13.796;2022-11-20T00:35:56;28.20;;;16.97;;
62798;SDS011;48842;51.046;13.796;2022-11-20T00:38:24;28.77;;;17.98;;
62798;SDS011;48842;51.046;13.796;2022-11-20T00:40:54;30.00;;;17.30;;
62798;SDS011;48842;51.046;13.796;2022-11-20T00:43:20;29.40;;;19.00;;
62798;SDS011;48842;51.046;13.796;2022-11-20T00:45:45;27.33;;;18.07;;
62798;SDS011;48842;51.046;13.796;2022-11-20T00:48:11;26.30;;;17.40;;
62798;SDS011;48842;51.046;13.796;2022-11-20T00:50:36;27.27;;;17.37;;
62798;SDS011;48842;51.046;13.796;2022-11-20T00:53:01;28.77;;;18.10;;
62798;SDS011;48842;51.046;13.796;2022-11-20T00:55:26;23.73;;;15.97;;
62798;SDS011;48842;51.046;13.796;2022-11-20T00:57:52;27.90;;;17.10;;
62798;SDS011;48842;51.046;13.796;2022-11-20T01:00:17;25.30;;;17.30;;
62798;SDS011;48842;51.046;13.796;2022-11-20T01:02:43;24.67;;;15.57;;
62798;SDS011;48842;51.046;13.796;2022-11-20T01:05:08;27.20;;;17.00;;
62798;SDS011;48842;51.046;13.796;2022-11-20T01:07:33;25.33;;;16.63;;
62798;SDS011;48842;51.046;13.796;2022-11-20T01:09:58;24.67;;;15.70;;
62798;SDS011;48842;51.046;13.796;2022-11-20T01:12:23;25.70;;;17.43;;
62798;SDS011;48842;51.046;13.796;2022-11-20T01:14:49;28.20;;;16.03;;
62798;SDS011;48842;51.046;13.796;2022-11-20T01:17:14;27.30;;;17.50;;
62798;SDS011;48842;51.046;13.796;2022-11-20T01:19:39;24.60;;;15.43;;
62798;SDS011;48842;51.046;13.796;2022-11-20T01:22:05;24.30;;;16.17;;
62798;SDS011;48842;51.046;13.796;2022-11-20T01:24:30;25.63;;;16.80;;
62798;SDS011;48842;51.046;13.796;2022-11-20T01:26:55;23.87;;;14.90;;
62798;SDS011;48842;51.046;13.796;2022-11-20T01:29:21;26.33;;;17.23;;
62798;SDS011;48842;51.046;13.796;2022-11-20T01:31:48;26.33;;;17.75;;
62798;SDS011;48842;51.046;13.796;2022-11-20T01:34:15;25.40;;;15.90;;
62798;SDS011;48842;51.046;13.796;2022-11-20T01:36:43;28.13;;;17.83;;
62798;SDS011;48842;51.046;13.796;2022-11-20T01:39:27;26.75;;;17.65;;
62798;SDS011;48842;51.046;13.796;2022-11-20T01:41:53;27.83;;;17.02;;
62798;SDS011;48842;51.046;13.796;2022-11-20T01:44:49;28.35;;;17.70;;
62798;SDS011;48842;51.046;13.796;2022-11-20T01:47:26;25.95;;;16.88;;
62798;SDS011;48842;51.046;13.796;2022-11-20T01:50:17;27.33;;;16.67;;
62798;SDS011;48842;51.046;13.796;2022-11-20T01:52:57;26.90;;;15.68;;
62798;SDS011;48842;51.046;13.796;2022-11-20T01:55:31;27.65;;;15.75;;
62798;SDS011;48842;51.046;13.796;2022-11-20T01:58:01;23.55;;;14.95;;
62798;SDS011;48842;51.046;13.796;2022-11-20T02:00:28;35.17;;;16.92;;
62798;SDS011;48842;51.046;13.796;2022-11-20T02:02:55;25.47;;;15.77;;
62798;SDS011;48842;51.046;13.796;2022-11-20T02:08:43;20.83;;;14.50;;
62798;SDS011;48842;51.046;13.796;2022-11-20T02:11:08;19.90;;;13.87;;
62798;SDS011;48842;51.046;13.796;2022-11-20T02:13:33;23.60;;;14.60;;
62798;SDS011;48842;51.046;13.796;2022-11-20T02:16:12;25.45;;;14.93;;
62798;SDS011;48842;51.046;13.796;2022-11-20T02:18:41;23.95;;;15.18;;
62798;SDS011;48842;51.046;13.796;2022-11-20T02:24:05;24.73;;;15.27;;
62798;SDS011;48842;51.046;13.796;2022-11-20T02:26:41;25.45;;;14.77;;
62798;SDS011;48842;51.046;13.796;2022-11-20T02:29:11;22.40;;;14.75;;
62798;SDS011;48842;51.046;13.796;2022-11-20T02:31:37;22.50;;;14.63;;
62798;SDS011;48842;51.046;13.796;2022-11-20T02:34:05;21.10;;;15.02;;
62798;SDS011;48842;51.046;13.796;2022-11-20T02:36:30;26.70;;;16.50;;
62798;SDS011;48842;51.046;13.796;2022-11-20T02:38:59;25.92;;;16.30;;
62798;SDS011;48842;51.046;13.796;2022-11-20T02:41:34;23.33;;;15.43;;
62798;SDS011;48842;51.046;13.796;2022-11-20T02:44:01;21.75;;;15.20;;
62798;SDS011;48842;51.046;13.796;2022-11-20T02:46:28;22.30;;;15.95;;
62798;SDS011;48842;51.046;13.796;2022-11-20T02:48:53;27.10;;;16.80;;
62798;SDS011;48842;51.046;13.796;2022-11-20T02:51:19;21.97;;;13.73;;
62798;SDS011;48842;51.046;13.796;2022-11-20T02:53:44;22.53;;;14.97;;
62798;SDS011;48842;51.046;13.796;2022-11-20T02:56:10;24.67;;;15.40;;
62798;SDS011;48842;51.046;13.796;2022-11-20T02:58:35;26.80;;;14.77;;
62798;SDS011;48842;51.046;13.796;2022-11-20T03:01:00;23.97;;;15.13;;
62798;SDS011;48842;51.046;13.796;2022-11-20T03:03:25;20.77;;;14.37;;
62798;SDS011;48842;51.046;13.796;2022-11-20T03:05:51;26.03;;;15.67;;
62798;SDS011;48842;51.046;13.796;2022-11-20T03:08:16;21.50;;;14.93;;
62798;SDS011;48842;51.046;13.796;2022-11-20T03:10:41;22.30;;;13.60;;
62798;SDS011;48842;51.046;13.796;2022-11-20T03:13:06;22.83;;;13.83;;
62798;SDS011;48842;51.046;13.796;2022-11-20T03:15:32;24.40;;;14.30;;
62798;SDS011;48842;51.046;13.796;2022-11-20T03:17:57;22.53;;;15.23;;
62798;SDS011;48842;51.046;13.796;2022-11-20T03:20:22;26.57;;;16.93;;
62798;SDS011;48842;51.046;13.796;2022-11-20T03:22:48;24.17;;;15.70;;
62798;SDS011;48842;51.046;13.796;2022-11-20T03:25:13;27.10;;;17.47;;
62798;SDS011;48842;51.046;13.796;2022-11-20T03:27:38;25.30;;;16.30;;
62798;SDS011;48842;51.046;13.796;2022-11-20T03:30:04;22.33;;;14.93;;
62798;SDS011;48842;51.046;13.796;2022-11-20T03:32:30;25.35;;;16.08;;
62798;SDS011;48842;51.046;13.796;2022-11-20T03:34:56;24.00;;;15.90;;
62798;SDS011;48842;51.046;13.796;2022-11-20T03:37:21;19.87;;;14.43;;
62798;SDS011;48842;51.046;13.796;2022-11-20T03:39:46;24.30;;;15.90;;
62798;SDS011;48842;51.046;13.796;2022-11-20T03:42:11;22.53;;;14.30;;
62798;SDS011;48842;51.046;13.796;2022-11-20T03:45:16;23.00;;;14.73;;
62798;SDS011;48842;51.046;13.796;2022-11-20T03:47:42;19.65;;;13.82;;
62798;SDS011;48842;51.046;13.796;2022-11-20T03:50:09;21.33;;;13.23;;
62798;SDS011;48842;51.046;13.796;2022-11-20T03:52:35;19.02;;;13.35;;
62798;SDS011;48842;51.046;13.796;2022-11-20T03:55:01;21.03;;;13.70;;
62798;SDS011;48842;51.046;13.796;2022-11-20T03:57:26;18.50;;;12.70;;
62798;SDS011;48842;51.046;13.796;2022-11-20T03:59:51;16.20;;;12.30;;
62798;SDS011;48842;51.046;13.796;2022-11-20T04:02:16;17.43;;;12.50;;
62798;SDS011;48842;51.046;13.796;2022-11-20T04:04:42;19.43;;;12.17;;
62798;SDS011;48842;51.046;13.796;2022-11-20T04:07:07;17.93;;;11.43;;
62798;SDS011;48842;51.046;13.796;2022-11-20T04:09:33;17.87;;;11.60;;
62798;SDS011;48842;51.046;13.796;2022-11-20T04:11:58;17.67;;;12.27;;
62798;SDS011;48842;51.046;13.796;2022-11-20T04:14:23;15.53;;;11.50;;
62798;SDS011;48842;51.046;13.796;2022-11-20T04:16:48;17.00;;;11.37;;
62798;SDS011;48842;51.046;13.796;2022-11-20T04:19:15;17.23;;;11.50;;
62798;SDS011;48842;51.046;13.796;2022-11-20T04:21:41;20.08;;;11.52;;
62798;SDS011;48842;51.046;13.796;2022-11-20T04:24:07;18.42;;;12.57;;
62798;SDS011;48842;51.046;13.796;2022-11-20T04:26:33;18.57;;;12.70;;
62798;SDS011;48842;51.046;13.796;2022-11-20T04:28:59;18.52;;;11.75;;
62798;SDS011;48842;51.046;13.796;2022-11-20T04:31:27;18.17;;;12.07;;
62798;SDS011;48842;51.046;13.796;2022-11-20T04:33:54;20.75;;;13.70;;
62798;SDS011;48842;51.046;13.796;2022-11-20T04:36:21;17.83;;;11.53;;
62798;SDS011;48842;51.046;13.796;2022-11-20T04:38:51;20.38;;;12.05;;
62798;SDS011;48842;51.046;13.796;2022-11-20T04:41:18;18.08;;;12.90;;
62798;SDS011;48842;51.046;13.796;2022-11-20T04:43:48;17.23;;;11.75;;
62798;SDS011;48842;51.046;13.796;2022-11-20T04:46:15;20.60;;;13.02;;
62798;SDS011;48842;51.046;13.796;2022-11-20T04:48:41;19.23;;;13.07;;
62798;SDS011;48842;51.046;13.796;2022-11-20T04:51:06;18.80;;;12.03;;
62798;SDS011;48842;51.046;13.796;2022-11-20T04:53:31;18.50;;;12.63;;
62798;SDS011;48842;51.046;13.796;2022-11-20T04:56:00;20.30;;;12.57;;
62798;SDS011;48842;51.046;13.796;2022-11-20T04:58:30;17.48;;;12.07;;
62798;SDS011;48842;51.046;13.796;2022-11-20T05:01:02;16.90;;;11.67;;
62798;SDS011;48842;51.046;13.796;2022-11-20T05:03:29;19.30;;;12.60;;
62798;SDS011;48842;51.046;13.796;2022-11-20T05:05:55;20.83;;;14.05;;
62798;SDS011;48842;51.046;13.796;2022-11-20T05:08:20;19.93;;;11.53;;
62798;SDS011;48842;51.046;13.796;2022-11-20T05:10:46;19.10;;;11.93;;
62798;SDS011;48842;51.046;13.796;2022-11-20T05:13:12;18.00;;;12.05;;
62798;SDS011;48842;51.046;13.796;2022-11-20T05:15:37;16.33;;;12.20;;
62798;SDS011;48842;51.046;13.796;2022-11-20T05:18:02;16.60;;;12.00;;
62798;SDS011;48842;51.046;13.796;2022-11-20T05:20:28;21.80;;;11.97;;
62798;SDS011;48842;51.046;13.796;2022-11-20T05:22:56;17.80;;;11.73;;
62798;SDS011;48842;51.046;13.796;2022-11-20T05:25:24;23.90;;;14.13;;
62798;SDS011;48842;51.046;13.796;2022-11-20T05:27:50;22.27;;;13.57;;
62798;SDS011;48842;51.046;13.796;2022-11-20T05:30:15;22.03;;;14.30;;
62798;SDS011;48842;51.046;13.796;2022-11-20T05:32:40;21.53;;;13.70;;
62798;SDS011;48842;51.046;13.796;2022-11-20T05:35:06;18.87;;;12.77;;
62798;SDS011;48842;51.046;13.796;2022-11-20T05:37:31;23.67;;;13.63;;
62798;SDS011;48842;51.046;13.796;2022-11-20T05:39:57;22.83;;;13.77;;
62798;SDS011;48842;51.046;13.796;2022-11-20T05:42:22;23.20;;;13.27;;
62798;SDS011;48842;51.046;13.796;2022-11-20T05:44:57;20.98;;;13.45;;
62798;SDS011;48842;51.046;13.796;2022-11-20T05:47:27;19.40;;;13.52;;
62798;SDS011;48842;51.046;13.796;2022-11-20T05:49:55;18.75;;;12.23;;
62798;SDS011;48842;51.046;13.796;2022-11-20T05:52:21;22.70;;;14.20;;
62798;SDS011;48842;51.046;13.796;2022-11-20T05:54:46;22.20;;;14.97;;
62798;SDS011;48842;51.046;13.796;2022-11-20T05:57:11;22.33;;;14.47;;
62798;SDS011;48842;51.046;13.796;2022-11-20T05:59:36;23.77;;;13.97;;
62798;SDS011;48842;51.046;13.796;2022-11-20T06:02:02;23.27;;;14.77;;
62798;SDS011;48842;51.046;13.796;2022-11-20T06:04:27;25.90;;;15.07;;
62798;SDS011;48842;51.046;13.796;2022-11-20T06:06:52;25.67;;;15.63;;
62798;SDS011;48842;51.046;13.796;2022-11-20T06:09:18;20.67;;;13.30;;
62798;SDS011;48842;51.046;13.796;2022-11-20T06:11:43;23.33;;;13.77;;
62798;SDS011;48842;51.046;13.796;2022-11-20T06:14:08;19.40;;;13.20;;
62798;SDS011;48842;51.046;13.796;2022-11-20T06:16:33;23.47;;;14.57;;
62798;SDS011;48842;51.046;13.796;2022-11-20T06:18:59;20.83;;;13.50;;
62798;SDS011;48842;51.046;13.796;2022-11-20T06:21:24;19.00;;;13.50;;
62798;SDS011;48842;51.046;13.796;2022-11-20T06:23:50;23.73;;;14.00;;
62798;SDS011;48842;51.046;13.796;2022-11-20T06:26:18;23.05;;;13.65;;
62798;SDS011;48842;51.046;13.796;2022-11-20T06:28:52;19.95;;;13.07;;
62798;SDS011;48842;51.046;13.796;2022-11-20T06:31:19;22.20;;;13.55;;
62798;SDS011;48842;51.046;13.796;2022-11-20T06:33:46;23.55;;;14.55;;
62798;SDS011;48842;51.046;13.796;2022-11-20T06:36:13;21.60;;;13.75;;
62798;SDS011;48842;51.046;13.796;2022-11-20T06:38:40;22.00;;;14.20;;
62798;SDS011;48842;51.046;13.796;2022-11-20T06:41:06;21.35;;;13.77;;
62798;SDS011;48842;51.046;13.796;2022-11-20T06:43:35;22.85;;;15.15;;
62798;SDS011;48842;51.046;13.796;2022-11-20T06:46:00;21.10;;;12.97;;
62798;SDS011;48842;51.046;13.796;2022-11-20T06:48:26;21.67;;;15.30;;
62798;SDS011;48842;51.046;13.796;2022-11-20T06:50:52;23.13;;;14.45;;
62798;SDS011;48842;51.046;13.796;2022-11-20T06:53:17;21.30;;;13.30;;
62798;SDS011;48842;51.046;13.796;2022-11-20T06:55:44;23.23;;;13.77;;
62798;SDS011;48842;51.046;13.796;2022-11-20T06:58:11;25.45;;;15.00;;
62798;SDS011;48842;51.046;13.796;2022-11-20T07:00:37;25.00;;;15.45;;
62798;SDS011;48842;51.046;13.796;2022-11-20T07:03:03;21.27;;;14.30;;
62798;SDS011;48842;51.046;13.796;2022-11-20T07:05:29;22.25;;;14.40;;
62798;SDS011;48842;51.046;13.796;2022-11-20T07:07:57;21.80;;;13.50;;
62798;SDS011;48842;51.046;13.796;2022-11-20T07:10:23;26.80;;;14.52;;
62798;SDS011;48842;51.046;13.796;2022-11-20T07:12:49;20.80;;;13.90;;
62798;SDS011;48842;51.046;13.796;2022-11-20T07:15:15;19.92;;;13.43;;
62798;SDS011;48842;51.046;13.796;2022-11-20T07:17:41;25.37;;;14.60;;
62798;SDS011;48842;51.046;13.796;2022-11-20T07:20:06;21.83;;;13.80;;
62798;SDS011;48842;51.046;13.796;2022-11-20T07:22:31;27.53;;;14.67;;
62798;SDS011;48842;51.046;13.796;2022-11-20T07:24:57;19.03;;;13.43;;
62798;SDS011;48842;51.046;13.796;2022-11-20T07:27:22;22.73;;;14.63;;
62798;SDS011;48842;51.046;13.796;2022-11-20T07:29:47;21.90;;;13.83;;
62798;SDS011;48842;51.046;13.796;2022-11-20T07:32:13;22.73;;;14.70;;
62798;SDS011;48842;51.046;13.796;2022-11-20T07:34:38;26.70;;;15.40;;
62798;SDS011;48842;51.046;13.796;2022-11-20T07:37:03;24.60;;;15.40;;
62798;SDS011;48842;51.046;13.796;2022-11-20T07:39:28;23.67;;;15.30;;
62798;SDS011;48842;51.046;13.796;2022-11-20T07:41:54;21.40;;;13.50;;
62798;SDS011;48842;51.046;13.796;2022-11-20T07:44:19;26.67;;;16.07;;
62798;SDS011;48842;51.046;13.796;2022-11-20T07:46:44;20.30;;;14.30;;
62798;SDS011;48842;51.046;13.796;2022-11-20T07:49:09;30.10;;;16.90;;
62798;SDS011;48842;51.046;13.796;2022-11-20T07:51:34;22.77;;;16.10;;
62798;SDS011;48842;51.046;13.796;2022-11-20T07:54:00;26.13;;;15.47;;
62798;SDS011;48842;51.046;13.796;2022-11-20T07:56:25;27.43;;;18.00;;
62798;SDS011;48842;51.046;13.796;2022-11-20T07:58:51;28.23;;;17.07;;
62798;SDS011;48842;51.046;13.796;2022-11-20T08:01:16;25.83;;;16.97;;
62798;SDS011;48842;51.046;13.796;2022-11-20T08:03:41;26.83;;;17.10;;
62798;SDS011;48842;51.046;13.796;2022-11-20T08:06:07;27.13;;;16.77;;
62798;SDS011;48842;51.046;13.796;2022-11-20T08:08:32;23.73;;;16.77;;
62798;SDS011;48842;51.046;13.796;2022-11-20T08:10:58;30.60;;;18.33;;
62798;SDS011;48842;51.046;13.796;2022-11-20T08:13:41;32.10;;;17.60;;
62798;SDS011;48842;51.046;13.796;2022-11-20T08:16:25;33.38;;;18.65;;
62798;SDS011;48842;51.046;13.796;2022-11-20T08:18:51;30.33;;;18.40;;
62798;SDS011;48842;51.046;13.796;2022-11-20T08:21:16;32.73;;;17.77;;
62798;SDS011;48842;51.046;13.796;2022-11-20T08:23:41;29.60;;;18.20;;
62798;SDS011;48842;51.046;13.796;2022-11-20T08:26:06;30.90;;;18.20;;
62798;SDS011;48842;51.046;13.796;2022-11-20T08:28:32;32.77;;;20.50;;
62798;SDS011;48842;51.046;13.796;2022-11-20T08:31:00;30.20;;;19.30;;
62798;SDS011;48842;51.046;13.796;2022-11-20T08:33:33;31.25;;;20.05;;
62798;SDS011;48842;51.046;13.796;2022-11-20T08:36:02;29.88;;;18.48;;
62798;SDS011;48842;51.046;13.796;2022-11-20T08:38:28;35.90;;;21.85;;
62798;SDS011;48842;51.046;13.796;2022-11-20T08:41:01;32.70;;;20.42;;
62798;SDS011;48842;51.046;13.796;2022-11-20T08:43:47;35.83;;;21.88;;
62798;SDS011;48842;51.046;13.796;2022-11-20T08:46:12;36.77;;;20.20;;
62798;SDS011;48842;51.046;13.796;2022-11-20T08:48:38;34.83;;;20.07;;
62798;SDS011;48842;51.046;13.796;2022-11-20T08:51:03;29.67;;;19.20;;
62798;SDS011;48842;51.046;13.796;2022-11-20T08:53:28;31.87;;;19.80;;
62798;SDS011;48842;51.046;13.796;2022-11-20T08:55:54;33.00;;;20.50;;
62798;SDS011;48842;51.046;13.796;2022-11-20T08:58:19;32.10;;;20.63;;
62798;SDS011;48842;51.046;13.796;2022-11-20T09:00:44;34.13;;;20.23;;
62798;SDS011;48842;51.046;13.796;2022-11-20T09:03:10;30.10;;;19.70;;
62798;SDS011;48842;51.046;13.796;2022-11-20T09:05:35;32.83;;;20.60;;
62798;SDS011;48842;51.046;13.796;2022-11-20T09:08:01;37.67;;;22.50;;
62798;SDS011;48842;51.046;13.796;2022-11-20T09:10:27;34.43;;;19.83;;
62798;SDS011;48842;51.046;13.796;2022-11-20T09:12:52;32.07;;;18.83;;
62798;SDS011;48842;51.046;13.796;2022-11-20T09:15:20;33.17;;;21.05;;
62798;SDS011;48842;51.046;13.796;2022-11-20T09:17:55;31.63;;;19.07;;
62798;SDS011;48842;51.046;13.796;2022-11-20T09:20:22;32.55;;;19.13;;
62798;SDS011;48842;51.046;13.796;2022-11-20T09:22:57;28.02;;;18.08;;
62798;SDS011;48842;51.046;13.796;2022-11-20T09:25:23;28.85;;;17.25;;
62798;SDS011;48842;51.046;13.796;2022-11-20T09:27:54;24.60;;;16.30;;
62798;SDS011;48842;51.046;13.796;2022-11-20T09:30:23;27.65;;;18.02;;
62798;SDS011;48842;51.046;13.796;2022-11-20T09:32:48;30.93;;;19.13;;
62798;SDS011;48842;51.046;13.796;2022-11-20T09:35:14;29.67;;;19.30;;
62798;SDS011;48842;51.046;13.796;2022-11-20T09:37:39;29.87;;;18.27;;
62798;SDS011;48842;51.046;13.796;2022-11-20T09:40:05;29.53;;;17.03;;
62798;SDS011;48842;51.046;13.796;2022-11-20T09:45:15;28.38;;;18.23;;
62798;SDS011;48842;51.046;13.796;2022-11-20T09:55:51;24.50;;;15.43;;
62798;SDS011;48842;51.046;13.796;2022-11-20T09:58:50;24.83;;;17.27;;
62798;SDS011;48842;51.046;13.796;2022-11-20T10:01:12;24.00;;;16.05;;
62798;SDS011;48842;51.046;13.796;2022-11-20T10:06:23;24.17;;;15.55;;
62798;SDS011;48842;51.046;13.796;2022-11-20T10:08:56;19.52;;;13.75;;
62798;SDS011;48842;51.046;13.796;2022-11-20T10:12:19;20.63;;;13.95;;
62798;SDS011;48842;51.046;13.796;2022-11-20T10:14:51;17.63;;;12.20;;
62798;SDS011;48842;51.046;13.796;2022-11-20T10:17:34;19.35;;;12.85;;
62798;SDS011;48842;51.046;13.796;2022-11-20T10:20:16;20.75;;;13.38;;
62798;SDS011;48842;51.046;13.796;2022-11-20T10:25:34;18.33;;;11.90;;
62798;SDS011;48842;51.046;13.796;2022-11-20T10:30:53;15.57;;;11.48;;
62798;SDS011;48842;51.046;13.796;2022-11-20T10:33:24;15.80;;;10.88;;
62798;SDS011;48842;51.046;13.796;2022-11-20T10:36:08;17.80;;;12.00;;
62798;SDS011;48842;51.046;13.796;2022-11-20T10:38:50;17.10;;;12.18;;
62798;SDS011;48842;51.046;13.796;2022-11-20T10:41:28;19.30;;;13.15;;
62798;SDS011;48842;51.046;13.796;2022-11-20T10:44:00;19.00;;;12.60;;
62798;SDS011;48842;51.046;13.796;2022-11-20T10:46:35;19.55;;;10.93;;
62798;SDS011;48842;51.046;13.796;2022-11-20T10:49:15;18.02;;;11.10;;
62798;SDS011;48842;51.046;13.796;2022-11-20T10:56:56;14.50;;;9.82;;
62798;SDS011;48842;51.046;13.796;2022-11-20T11:04:49;15.50;;;11.90;;
62798;SDS011;48842;51.046;13.796;2022-11-20T11:07:21;16.15;;;10.73;;
62798;SDS011;48842;51.046;13.796;2022-11-20T11:09:52;14.77;;;10.82;;
62798;SDS011;48842;51.046;13.796;2022-11-20T11:12:23;16.80;;;11.55;;
62798;SDS011;48842;51.046;13.796;2022-11-20T11:14:51;17.25;;;11.80;;
62798;SDS011;48842;51.046;13.796;2022-11-20T11:17:20;20.42;;;13.52;;
62798;SDS011;48842;51.046;13.796;2022-11-20T11:20:04;15.63;;;11.82;;
62798;SDS011;48842;51.046;13.796;2022-11-20T11:22:32;16.02;;;11.45;;
62798;SDS011;48842;51.046;13.796;2022-11-20T11:25:00;17.13;;;11.93;;
62798;SDS011;48842;51.046;13.796;2022-11-20T11:27:25;15.17;;;11.63;;
62798;SDS011;48842;51.046;13.796;2022-11-20T11:30:00;16.87;;;11.40;;
62798;SDS011;48842;51.046;13.796;2022-11-20T11:32:27;17.25;;;12.15;;
62798;SDS011;48842;51.046;13.796;2022-11-20T11:35:03;16.23;;;11.30;;
62798;SDS011;48842;51.046;13.796;2022-11-20T11:37:43;15.68;;;10.55;;
62798;SDS011;48842;51.046;13.796;2022-11-20T11:40:10;14.77;;;10.45;;
62798;SDS011;48842;51.046;13.796;2022-11-20T11:42:41;11.95;;;9.38;;
62798;SDS011;48842;51.046;13.796;2022-11-20T11:45:15;14.38;;;10.48;;
62798;SDS011;48842;51.046;13.796;2022-11-20T11:55:29;27.75;;;10.00;;
62798;SDS011;48842;51.046;13.796;2022-11-20T11:58:11;11.70;;;9.23;;
62798;SDS011;48842;51.046;13.796;2022-11-20T12:00:41;13.15;;;9.88;;
62798;SDS011;48842;51.046;13.796;2022-11-20T12:03:58;9.95;;;8.05;;
62798;SDS011;48842;51.046;13.796;2022-11-20T12:06:10;22.25;;;8.85;;
62798;SDS011;48842;51.046;13.796;2022-11-20T12:08:46;11.80;;;8.90;;
62798;SDS011;48842;51.046;13.796;2022-11-20T12:11:31;11.23;;;8.50;;
62798;SDS011;48842;51.046;13.796;2022-11-20T12:16:29;9.55;;;7.97;;
62798;SDS011;48842;51.046;13.796;2022-11-20T12:18:59;10.52;;;7.70;;
62798;SDS011;48842;51.046;13.796;2022-11-20T12:21:32;15.30;;;8.53;;
62798;SDS011;48842;51.046;13.796;2022-11-20T12:32:36;10.73;;;8.63;;
62798;SDS011;48842;51.046;13.796;2022-11-20T12:47:11;12.82;;;9.52;;
62798;SDS011;48842;51.046;13.796;2022-11-20T12:50:02;8.85;;;7.95;;
62798;SDS011;48842;51.046;13.796;2022-11-20T12:52:46;11.43;;;9.30;;
62798;SDS011;48842;51.046;13.796;2022-11-20T12:55:33;13.20;;;9.00;;
62798;SDS011;48842;51.046;13.796;2022-11-20T12:58:19;12.35;;;9.30;;
62798;SDS011;48842;51.046;13.796;2022-11-20T13:00:56;10.80;;;8.48;;
62798;SDS011;48842;51.046;13.796;2022-11-20T13:04:08;12.73;;;9.50;;
62798;SDS011;48842;51.046;13.796;2022-11-20T13:06:36;9.75;;;7.75;;
62798;SDS011;48842;51.046;13.796;2022-11-20T13:09:02;11.60;;;8.67;;
62798;SDS011;48842;51.046;13.796;2022-11-20T13:11:42;9.60;;;7.80;;
62798;SDS011;48842;51.046;13.796;2022-11-20T13:14:24;12.63;;;9.82;;
62798;SDS011;48842;51.046;13.796;2022-11-20T13:17:02;10.48;;;8.15;;
62798;SDS011;48842;51.046;13.796;2022-11-20T13:19:39;10.20;;;8.88;;
62798;SDS011;48842;51.046;13.796;2022-11-20T13:22:07;11.35;;;9.60;;
62798;SDS011;48842;51.046;13.796;2022-11-20T13:24:33;11.82;;;8.43;;
62798;SDS011;48842;51.046;13.796;2022-11-20T13:29:33;12.45;;;9.23;;
62798;SDS011;48842;51.046;13.796;2022-11-20T13:32:16;15.50;;;11.90;;
62798;SDS011;48842;51.046;13.796;2022-11-20T13:34:53;12.07;;;9.80;;
62798;SDS011;48842;51.046;13.796;2022-11-20T13:37:33;10.30;;;8.18;;
62798;SDS011;48842;51.046;13.796;2022-11-20T13:45:41;11.02;;;8.68;;
62798;SDS011;48842;51.046;13.796;2022-11-20T13:48:19;9.90;;;7.60;;
62798;SDS011;48842;51.046;13.796;2022-11-20T13:53:42;7.75;;;6.95;;
62798;SDS011;48842;51.046;13.796;2022-11-20T14:01:53;10.52;;;8.15;;
62798;SDS011;48842;51.046;13.796;2022-11-20T14:04:20;9.37;;;7.20;;
62798;SDS011;48842;51.046;13.796;2022-11-20T14:06:55;10.77;;;7.88;;
62798;SDS011;48842;51.046;13.796;2022-11-20T14:09:28;8.63;;;7.43;;
62798;SDS011;48842;51.046;13.796;2022-11-20T14:11:56;9.85;;;7.53;;
62798;SDS011;48842;51.046;13.796;2022-11-20T14:14:22;10.27;;;8.07;;
62798;SDS011;48842;51.046;13.796;2022-11-20T14:16:50;7.32;;;6.63;;
62798;SDS011;48842;51.046;13.796;2022-11-20T14:19:23;8.30;;;7.30;;
62798;SDS011;48842;51.046;13.796;2022-11-20T14:22:47;9.15;;;7.35;;
62798;SDS011;48842;51.046;13.796;2022-11-20T14:24:41;8.02;;;6.63;;
62798;SDS011;48842;51.046;13.796;2022-11-20T14:27:13;8.20;;;7.37;;
62798;SDS011;48842;51.046;13.796;2022-11-20T14:29:41;8.85;;;6.82;;
62798;SDS011;48842;51.046;13.796;2022-11-20T14:32:08;7.90;;;7.10;;
62798;SDS011;48842;51.046;13.796;2022-11-20T14:34:37;13.15;;;8.70;;
62798;SDS011;48842;51.046;13.796;2022-11-20T14:37:06;18.63;;;11.95;;
62798;SDS011;48842;51.046;13.796;2022-11-20T14:39:41;10.25;;;7.45;;
62798;SDS011;48842;51.046;13.796;2022-11-20T14:42:30;10.32;;;9.02;;
62798;SDS011;48842;51.046;13.796;2022-11-20T14:44:57;8.88;;;7.72;;
62798;SDS011;48842;51.046;13.796;2022-11-20T14:47:25;8.90;;;7.47;;
62798;SDS011;48842;51.046;13.796;2022-11-20T14:49:52;11.23;;;8.18;;
62798;SDS011;48842;51.046;13.796;2022-11-20T14:52:20;8.82;;;7.60;;
62798;SDS011;48842;51.046;13.796;2022-11-20T14:54:50;10.15;;;8.05;;
62798;SDS011;48842;51.046;13.796;2022-11-20T14:57:29;9.30;;;7.97;;
62798;SDS011;48842;51.046;13.796;2022-11-20T15:02:40;13.00;;;8.10;;
62798;SDS011;48842;51.046;13.796;2022-11-20T15:05:06;10.93;;;8.05;;
62798;SDS011;48842;51.046;13.796;2022-11-20T15:07:33;11.40;;;8.20;;
62798;SDS011;48842;51.046;13.796;2022-11-20T15:10:12;10.02;;;8.60;;
62798;SDS011;48842;51.046;13.796;2022-11-20T15:15:18;11.18;;;8.68;;
62798;SDS011;48842;51.046;13.796;2022-11-20T15:17:48;9.70;;;8.55;;
62798;SDS011;48842;51.046;13.796;2022-11-20T15:20:14;11.37;;;9.37;;
62798;SDS011;48842;51.046;13.796;2022-11-20T15:22:41;10.73;;;7.95;;
62798;SDS011;48842;51.046;13.796;2022-11-20T15:25:16;10.07;;;8.20;;
62798;SDS011;48842;51.046;13.796;2022-11-20T15:27:43;12.00;;;8.68;;
62798;SDS011;48842;51.046;13.796;2022-11-20T15:30:16;11.98;;;8.65;;
62798;SDS011;48842;51.046;13.796;2022-11-20T15:32:43;11.63;;;8.50;;
62798;SDS011;48842;51.046;13.796;2022-11-20T15:35:09;11.43;;;8.93;;
62798;SDS011;48842;51.046;13.796;2022-11-20T15:37:35;12.07;;;9.17;;
62798;SDS011;48842;51.046;13.796;2022-11-20T15:40:02;11.55;;;9.07;;
62798;SDS011;48842;51.046;13.796;2022-11-20T15:42:28;12.68;;;9.20;;
62798;SDS011;48842;51.046;13.796;2022-11-20T15:44:53;15.33;;;10.03;;
62798;SDS011;48842;51.046;13.796;2022-11-20T15:47:19;12.67;;;8.97;;
62798;SDS011;48842;51.046;13.796;2022-11-20T15:49:50;12.05;;;9.55;;
62798;SDS011;48842;51.046;13.796;2022-11-20T15:52:15;20.13;;;11.20;;
62798;SDS011;48842;51.046;13.796;2022-11-20T15:54:41;14.90;;;10.40;;